Date,TemperatureHighF,TemperatureAvgF,TemperatureLowF,DewpointHighF,DewpointAvgF,DewpointLowF,HumidityHigh,HumidityAvg,HumidityLow,PressureMaxIn,PressureMinIn,WindSpeedMaxMPH,WindSpeedAvgMPH,GustSpeedMaxMPH,PrecipitationSumIn
2013-8-1,86,80,73,78,74,71,94,82,69,29.97,29.86,4,1,6,0.02
2013-8-2,88,79,70,73,70,68,94,76,51,30.02,29.90,3,0,5,0.00
2013-8-3,88,81,74,78,73,70,93,79,59,30.00,29.91,5,2,9,0.00
2013-8-4,89,80,71,73,69,66,90,71,48,29.99,29.90,2,0,9,0.00
2013-8-5,86,81,73,73,69,66,79,68,57,30.05,29.95,3,1,8,0.00
2013-8-6,78,73,69,71,69,66,92,87,77,30.04,29.96,4,2,8,0.11
2013-8-7,84,77,73,75,72,70,94,85,70,30.08,30.00,2,1,0,0.15
2013-8-8,86,79,74,78,74,70,91,83,73,30.04,29.97,2,1,0,0.00
2013-8-9,91,81,75,79,75,72,93,83,67,30.04,29.97,5,2,0,0.00
2013-8-10,92,80,74,80,75,71,93,86,65,30.07,30.00,9,2,13,0.42
2013-8-11,92,86,74,78,76,72,95,74,61,30.10,30.01,3,2,9,0.00
2013-8-12,93,80,74,78,74,71,94,81,60,30.04,29.92,4,1,0,0.00
2013-8-13,88,78,73,76,73,71,95,84,65,29.94,29.78,5,2,0,0.00
2013-8-14,75,73,71,71,67,63,87,82,71,29.97,29.84,1,0,6,0.00
2013-8-15,77,70,62,62,60,58,89,73,55,30.15,30.06,2,0,0,0.00
2013-8-16,73,67,62,64,60,57,86,79,65,30.16,30.08,2,0,6,0.01
2013-8-17,67,64,62,65,62,60,96,92,85,30.19,30.13,2,0,6,0.75
2013-8-18,80,71,65,73,68,64,97,90,75,30.22,30.12,2,0,5,0.08
2013-8-19,80,72,69,73,70,68,96,92,78,30.17,30.08,1,0,6,0.58
2013-8-20,82,74,68,74,70,67,96,88,74,30.18,30.10,2,0,4,0.00
2013-8-21,83,76,72,77,72,70,95,90,79,30.21,30.09,4,1,7,0.00
2013-8-22,90,79,72,78,73,70,96,83,60,30.13,29.98,5,1,5,0.00
2013-8-23,88,75,70,76,71,67,95,87,58,30.03,29.95,4,1,6,0.20
2013-8-24,84,73,65,69,64,60,92,74,47,30.26,30.08,2,1,6,0.00
2013-8-25,82,72,62,68,63,59,93,75,51,30.38,30.27,2,0,4,0.00
2013-8-26,85,72,61,68,64,59,95,76,52,30.31,30.10,3,0,5,0.00
2013-8-27,87,77,68,74,70,64,91,78,62,30.12,29.97,4,1,0,0.00
2013-8-28,84,75,71,76,71,68,94,88,72,30.00,29.93,3,0,5,0.00
2013-8-29,94,83,75,78,74,71,89,76,53,29.96,29.86,2,1,5,0.02
2013-8-30,89,79,72,72,70,67,92,75,49,30.03,29.91,3,0,5,0.00
2013-8-31,89,78,72,77,72,68,92,82,65,29.94,29.84,4,1,6,0.01